sensor_id;sensor_type;location;lat;lon;timestamp;temperature;humidity
65836;SHT30;52595;51.608;7.216;2024-03-23T00:55:52;6.01;99.99
65836;SHT30;52595;51.608;7.216;2024-03-23T00:58:18;6.06;99.99
65836;SHT30;52595;51.608;7.216;2024-03-23T01:00:43;5.99;99.99
65836;SHT30;52595;51.608;7.216;2024-03-23T01:03:09;5.99;99.99
65836;SHT30;52595;51.608;7.216;2024-03-23T01:05:34;6.02;99.99
65836;SHT30;52595;51.608;7.216;2024-03-23T01:08:00;5.98;99.99
65836;SHT30;52595;51.608;7.216;2024-03-23T01:10:25;5.93;99.99
65836;SHT30;52595;51.608;7.216;2024-03-23T01:12:51;5.78;99.99
65836;SHT30;52595;51.608;7.216;2024-03-23T01:15:16;5.79;99.99
65836;SHT30;52595;51.608;7.216;2024-03-23T01:17:42;5.82;99.99
65836;SHT30;52595;51.608;7.216;2024-03-23T01:20:07;5.86;99.99
65836;SHT30;52595;51.608;7.216;2024-03-23T01:22:33;5.81;99.99
65836;SHT30;52595;51.608;7.216;2024-03-23T01:24:58;5.78;99.99
65836;SHT30;52595;51.608;7.216;2024-03-23T01:27:24;5.72;99.99
65836;SHT30;52595;51.608;7.216;2024-03-23T01:29:50;5.78;99.99
65836;SHT30;52595;51.608;7.216;2024-03-23T01:32:17;5.71;99.99
65836;SHT30;52595;51.608;7.216;2024-03-23T01:34:43;5.61;99.99
65836;SHT30;52595;51.608;7.216;2024-03-23T01:37:09;5.66;99.99
65836;SHT30;52595;51.608;7.216;2024-03-23T01:39:35;5.69;99.99
65836;SHT30;52595;51.608;7.216;2024-03-23T01:42:00;5.75;99.99
65836;SHT30;52595;51.608;7.216;2024-03-23T01:44:26;5.68;99.99
65836;SHT30;52595;51.608;7.216;2024-03-23T01:46:52;5.66;99.99
65836;SHT30;52595;51.608;7.216;2024-03-23T01:49:17;5.69;99.99
65836;SHT30;52595;51.608;7.216;2024-03-23T01:51:43;5.62;99.99
65836;SHT30;52595;51.608;7.216;2024-03-23T01:54:10;5.58;99.99
65836;SHT30;52595;51.608;7.216;2024-03-23T01:56:35;5.61;99.99
65836;SHT30;52595;51.608;7.216;2024-03-23T01:59:05;5.61;99.99
65836;SHT30;52595;51.608;7.216;2024-03-23T02:01:31;5.59;99.99
65836;SHT30;52595;51.608;7.216;2024-03-23T02:03:58;5.58;99.99
65836;SHT30;52595;51.608;7.216;2024-03-23T02:06:26;5.52;99.99
65836;SHT30;52595;51.608;7.216;2024-03-23T02:08:54;5.45;99.99
65836;SHT30;52595;51.608;7.216;2024-03-23T02:11:19;5.44;99.99
65836;SHT30;52595;51.608;7.216;2024-03-23T02:13:45;5.44;99.99
65836;SHT30;52595;51.608;7.216;2024-03-23T02:16:10;5.41;99.99
65836;SHT30;52595;51.608;7.216;2024-03-23T02:18:36;5.34;99.99
65836;SHT30;52595;51.608;7.216;2024-03-23T02:21:02;5.38;99.99
65836;SHT30;52595;51.608;7.216;2024-03-23T02:23:28;5.38;99.99
65836;SHT30;52595;51.608;7.216;2024-03-23T02:25:53;5.35;99.99
65836;SHT30;52595;51.608;7.216;2024-03-23T02:28:20;5.38;99.99
65836;SHT30;52595;51.608;7.216;2024-03-23T02:30:45;5.42;99.99
65836;SHT30;52595;51.608;7.216;2024-03-23T02:33:11;5.37;99.99
65836;SHT30;52595;51.608;7.216;2024-03-23T02:35:37;5.37;99.99
65836;SHT30;52595;51.608;7.216;2024-03-23T02:38:02;5.41;99.99
65836;SHT30;52595;51.608;7.216;2024-03-23T02:40:28;5.39;99.99
65836;SHT30;52595;51.608;7.216;2024-03-23T02:42:54;5.35;99.99
65836;SHT30;52595;51.608;7.216;2024-03-23T02:45:19;5.42;99.99
65836;SHT30;52595;51.608;7.216;2024-03-23T02:47:45;5.34;99.99
65836;SHT30;52595;51.608;7.216;2024-03-23T02:50:10;5.27;99.99
65836;SHT30;52595;51.608;7.216;2024-03-23T02:52:36;5.28;99.99
65836;SHT30;52595;51.608;7.216;2024-03-23T02:55:02;5.30;99.99
65836;SHT30;52595;51.608;7.216;2024-03-23T02:57:28;5.30;99.99
65836;SHT30;52595;51.608;7.216;2024-03-23T02:59:54;5.27;99.99
65836;SHT30;52595;51.608;7.216;2024-03-23T03:02:20;5.28;99.99
65836;SHT30;52595;51.608;7.216;2024-03-23T03:04:46;5.27;99.99
65836;SHT30;52595;51.608;7.216;2024-03-23T03:07:11;5.27;99.99
65836;SHT30;52595;51.608;7.216;2024-03-23T03:09:37;5.27;99.99
65836;SHT30;52595;51.608;7.216;2024-03-23T03:12:05;5.31;99.99
65836;SHT30;52595;51.608;7.216;2024-03-23T03:14:31;5.34;99.99
65836;SHT30;52595;51.608;7.216;2024-03-23T03:16:56;5.24;99.99
65836;SHT30;52595;51.608;7.216;2024-03-23T03:19:22;5.26;99.99
65836;SHT30;52595;51.608;7.216;2024-03-23T03:21:48;5.24;99.99
65836;SHT30;52595;51.608;7.216;2024-03-23T03:24:13;5.21;99.99
65836;SHT30;52595;51.608;7.216;2024-03-23T03:26:39;5.23;99.99
65836;SHT30;52595;51.608;7.216;2024-03-23T03:29:05;5.21;99.99
65836;SHT30;52595;51.608;7.216;2024-03-23T03:31:30;5.18;99.99
65836;SHT30;52595;51.608;7.216;2024-03-23T03:33:56;5.10;99.99
65836;SHT30;52595;51.608;7.216;2024-03-23T03:36:22;5.11;99.99
65836;SHT30;52595;51.608;7.216;2024-03-23T03:38:47;5.07;99.99
65836;SHT30;52595;51.608;7.216;2024-03-23T03:41:13;5.06;99.99
65836;SHT30;52595;51.608;7.216;2024-03-23T03:43:38;5.01;99.99
65836;SHT30;52595;51.608;7.216;2024-03-23T03:46:04;5.04;99.99
65836;SHT30;52595;51.608;7.216;2024-03-23T03:48:30;5.06;99.99
65836;SHT30;52595;51.608;7.216;2024-03-23T03:50:55;5.08;99.99
65836;SHT30;52595;51.608;7.216;2024-03-23T03:53:21;5.03;99.99
65836;SHT30;52595;51.608;7.216;2024-03-23T03:55:46;4.98;99.99
65836;SHT30;52595;51.608;7.216;2024-03-23T03:58:12;4.97;99.99
65836;SHT30;52595;51.608;7.216;2024-03-23T04:00:38;5.00;99.99
65836;SHT30;52595;51.608;7.216;2024-03-23T04:03:03;5.01;99.99
65836;SHT30;52595;51.608;7.216;2024-03-23T04:05:29;4.98;99.99
65836;SHT30;52595;51.608;7.216;2024-03-23T04:07:54;5.00;99.99
65836;SHT30;52595;51.608;7.216;2024-03-23T04:10:20;4.98;99.99
65836;SHT30;52595;51.608;7.216;2024-03-23T04:12:47;4.98;99.99
65836;SHT30;52595;51.608;7.216;2024-03-23T04:15:12;5.00;99.99
65836;SHT30;52595;51.608;7.216;2024-03-23T04:17:37;5.03;99.99
65836;SHT30;52595;51.608;7.216;2024-03-23T04:20:03;5.06;99.99
65836;SHT30;52595;51.608;7.216;2024-03-23T04:22:34;5.04;99.99
65836;SHT30;52595;51.608;7.216;2024-03-23T04:24:59;5.03;99.99
65836;SHT30;52595;51.608;7.216;2024-03-23T04:27:25;4.98;99.99
65836;SHT30;52595;51.608;7.216;2024-03-23T04:29:51;5.03;99.99
65836;SHT30;52595;51.608;7.216;2024-03-23T04:32:18;5.03;99.99
65836;SHT30;52595;51.608;7.216;2024-03-23T04:34:44;5.03;99.99
65836;SHT30;52595;51.608;7.216;2024-03-23T04:37:10;5.03;99.99
65836;SHT30;52595;51.608;7.216;2024-03-23T04:39:38;5.03;99.99
65836;SHT30;52595;51.608;7.216;2024-03-23T04:42:04;5.01;99.99
65836;SHT30;52595;51.608;7.216;2024-03-23T04:44:30;5.04;99.99
65836;SHT30;52595;51.608;7.216;2024-03-23T04:46:57;5.01;99.99
65836;SHT30;52595;51.608;7.216;2024-03-23T04:49:22;5.04;99.99
65836;SHT30;52595;51.608;7.216;2024-03-23T04:51:48;5.06;99.99
65836;SHT30;52595;51.608;7.216;2024-03-23T04:54:14;5.04;99.99
65836;SHT30;52595;51.608;7.216;2024-03-23T04:56:40;5.00;99.99
65836;SHT30;52595;51.608;7.216;2024-03-23T04:59:06;5.06;99.99
65836;SHT30;52595;51.608;7.216;2024-03-23T05:01:31;5.06;99.99
65836;SHT30;52595;51.608;7.216;2024-03-23T05:03:57;5.08;99.99
65836;SHT30;52595;51.608;7.216;2024-03-23T05:06:24;5.07;99.99
65836;SHT30;52595;51.608;7.216;2024-03-23T05:08:50;5.10;99.99
65836;SHT30;52595;51.608;7.216;2024-03-23T05:11:15;5.11;99.99
65836;SHT30;52595;51.608;7.216;2024-03-23T05:13:42;5.16;99.99
65836;SHT30;52595;51.608;7.216;2024-03-23T05:16:07;5.16;99.99
65836;SHT30;52595;51.608;7.216;2024-03-23T05:18:34;5.16;99.99
65836;SHT30;52595;51.608;7.216;2024-03-23T05:21:00;5.14;99.99
65836;SHT30;52595;51.608;7.216;2024-03-23T05:23:25;5.16;99.99
65836;SHT30;52595;51.608;7.216;2024-03-23T05:25:51;5.20;99.99
65836;SHT30;52595;51.608;7.216;2024-03-23T05:28:18;5.20;99.99
65836;SHT30;52595;51.608;7.216;2024-03-23T05:30:43;5.23;99.99
65836;SHT30;52595;51.608;7.216;2024-03-23T05:33:09;5.26;99.99
65836;SHT30;52595;51.608;7.216;2024-03-23T05:35:35;5.26;99.99
65836;SHT30;52595;51.608;7.216;2024-03-23T05:38:01;5.27;99.99
65836;SHT30;52595;51.608;7.216;2024-03-23T05:40:27;5.24;99.99
65836;SHT30;52595;51.608;7.216;2024-03-23T05:42:52;5.27;99.99
65836;SHT30;52595;51.608;7.216;2024-03-23T05:45:19;5.26;99.99
65836;SHT30;52595;51.608;7.216;2024-03-23T05:47:44;5.31;99.99
65836;SHT30;52595;51.608;7.216;2024-03-23T05:50:10;5.30;99.99
65836;SHT30;52595;51.608;7.216;2024-03-23T05:52:38;5.30;99.99
65836;SHT30;52595;51.608;7.216;2024-03-23T05:55:05;5.30;99.99
65836;SHT30;52595;51.608;7.216;2024-03-23T05:57:30;5.30;99.99
65836;SHT30;52595;51.608;7.216;2024-03-23T05:59:56;5.31;99.99
65836;SHT30;52595;51.608;7.216;2024-03-23T06:02:22;5.34;99.99
65836;SHT30;52595;51.608;7.216;2024-03-23T06:04:47;5.37;99.99
65836;SHT30;52595;51.608;7.216;2024-03-23T06:07:13;5.37;99.99
65836;SHT30;52595;51.608;7.216;2024-03-23T06:09:42;5.41;99.99
65836;SHT30;52595;51.608;7.216;2024-03-23T06:12:08;5.42;99.99
65836;SHT30;52595;51.608;7.216;2024-03-23T06:14:34;5.44;99.99
65836;SHT30;52595;51.608;7.216;2024-03-23T06:17:00;5.44;99.99
65836;SHT30;52595;51.608;7.216;2024-03-23T06:19:27;5.42;99.99
65836;SHT30;52595;51.608;7.216;2024-03-23T06:21:53;5.44;99.99
65836;SHT30;52595;51.608;7.216;2024-03-23T06:24:22;5.41;99.99
65836;SHT30;52595;51.608;7.216;2024-03-23T06:26:48;5.44;99.99
65836;SHT30;52595;51.608;7.216;2024-03-23T06:29:13;5.44;99.99
65836;SHT30;52595;51.608;7.216;2024-03-23T06:31:39;5.47;99.99
65836;SHT30;52595;51.608;7.216;2024-03-23T06:34:04;5.48;99.99
65836;SHT30;52595;51.608;7.216;2024-03-23T06:36:30;5.55;99.99
65836;SHT30;52595;51.608;7.216;2024-03-23T06:38:56;5.66;99.99
65836;SHT30;52595;51.608;7.216;2024-03-23T06:41:22;5.72;99.99
65836;SHT30;52595;51.608;7.216;2024-03-23T06:43:48;5.73;99.99
65836;SHT30;52595;51.608;7.216;2024-03-23T06:46:13;5.79;99.99
65836;SHT30;52595;51.608;7.216;2024-03-23T06:48:39;5.73;99.99
65836;SHT30;52595;51.608;7.216;2024-03-23T06:51:04;5.78;99.99
65836;SHT30;52595;51.608;7.216;2024-03-23T06:53:30;5.75;99.99
65836;SHT30;52595;51.608;7.216;2024-03-23T06:55:55;5.76;99.99
65836;SHT30;52595;51.608;7.216;2024-03-23T06:58:24;5.69;99.99
65836;SHT30;52595;51.608;7.216;2024-03-23T07:00:50;5.75;99.99
65836;SHT30;52595;51.608;7.216;2024-03-23T07:03:20;5.73;99.99
65836;SHT30;52595;51.608;7.216;2024-03-23T07:05:46;5.76;99.99
65836;SHT30;52595;51.608;7.216;2024-03-23T07:08:12;5.81;99.99
65836;SHT30;52595;51.608;7.216;2024-03-23T07:10:40;5.82;99.99
65836;SHT30;52595;51.608;7.216;2024-03-23T07:13:05;5.88;99.99
65836;SHT30;52595;51.608;7.216;2024-03-23T07:15:31;5.88;99.99
65836;SHT30;52595;51.608;7.216;2024-03-23T07:17:56;5.95;99.99
65836;SHT30;52595;51.608;7.216;2024-03-23T07:20:22;6.02;99.99
65836;SHT30;52595;51.608;7.216;2024-03-23T07:22:47;5.98;99.99
65836;SHT30;52595;51.608;7.216;2024-03-23T07:25:13;6.09;99.99
65836;SHT30;52595;51.608;7.216;2024-03-23T07:27:39;6.23;99.99
65836;SHT30;52595;51.608;7.216;2024-03-23T07:30:05;6.34;99.99
65836;SHT30;52595;51.608;7.216;2024-03-23T07:32:31;6.47;99.99
65836;SHT30;52595;51.608;7.216;2024-03-23T07:34:56;6.47;99.99
65836;SHT30;52595;51.608;7.216;2024-03-23T07:37:22;6.37;99.68
65836;SHT30;52595;51.608;7.216;2024-03-23T07:39:47;6.40;99.99
65836;SHT30;52595;51.608;7.216;2024-03-23T07:42:13;6.41;99.68
65836;SHT30;52595;51.608;7.216;2024-03-23T07:44:39;6.46;99.47
65836;SHT30;52595;51.608;7.216;2024-03-23T07:47:05;6.56;99.53
65836;SHT30;52595;51.608;7.216;2024-03-23T07:49:30;6.64;98.99
65836;SHT30;52595;51.608;7.216;2024-03-23T07:51:56;6.97;97.19
65836;SHT30;52595;51.608;7.216;2024-03-23T07:54:21;7.14;95.48
65836;SHT30;52595;51.608;7.216;2024-03-23T07:56:47;7.22;94.81
65836;SHT30;52595;51.608;7.216;2024-03-23T07:59:12;7.23;93.69
65836;SHT30;52595;51.608;7.216;2024-03-23T08:01:38;7.28;94.12
65836;SHT30;52595;51.608;7.216;2024-03-23T08:04:04;7.33;94.01
65836;SHT30;52595;51.608;7.216;2024-03-23T08:06:29;7.31;92.90
65836;SHT30;52595;51.608;7.216;2024-03-23T08:08:55;7.42;93.49
65836;SHT30;52595;51.608;7.216;2024-03-23T08:11:29;7.53;92.03
65836;SHT30;52595;51.608;7.216;2024-03-23T08:14:00;7.45;93.31
65836;SHT30;52595;51.608;7.216;2024-03-23T08:16:29;7.51;92.50
65836;SHT30;52595;51.608;7.216;2024-03-23T08:18:55;7.60;91.86
65836;SHT30;52595;51.608;7.216;2024-03-23T08:21:23;7.62;91.40
65836;SHT30;52595;51.608;7.216;2024-03-23T08:23:50;7.60;92.06
65836;SHT30;52595;51.608;7.216;2024-03-23T08:26:16;7.59;91.86
65836;SHT30;52595;51.608;7.216;2024-03-23T08:28:43;7.79;91.62
65836;SHT30;52595;51.608;7.216;2024-03-23T08:31:10;7.58;90.85
65836;SHT30;52595;51.608;7.216;2024-03-23T08:33:36;7.51;91.27
65836;SHT30;52595;51.608;7.216;2024-03-23T08:36:04;7.49;90.66
65836;SHT30;52595;51.608;7.216;2024-03-23T08:38:29;7.72;90.71
65836;SHT30;52595;51.608;7.216;2024-03-23T08:40:59;7.72;90.31
65836;SHT30;52595;51.608;7.216;2024-03-23T08:43:26;7.82;89.34
65836;SHT30;52595;51.608;7.216;2024-03-23T08:45:52;7.91;89.79
65836;SHT30;52595;51.608;7.216;2024-03-23T08:48:19;7.93;89.69
65836;SHT30;52595;51.608;7.216;2024-03-23T08:50:46;7.83;88.43
65836;SHT30;52595;51.608;7.216;2024-03-23T08:53:12;7.77;88.01
65836;SHT30;52595;51.608;7.216;2024-03-23T08:55:37;7.93;88.53
65836;SHT30;52595;51.608;7.216;2024-03-23T08:58:03;7.97;87.60
65836;SHT30;52595;51.608;7.216;2024-03-23T09:00:29;7.86;87.99
65836;SHT30;52595;51.608;7.216;2024-03-23T09:02:55;7.79;88.09
65836;SHT30;52595;51.608;7.216;2024-03-23T09:05:22;7.84;86.90
65836;SHT30;52595;51.608;7.216;2024-03-23T09:07:49;7.93;86.20
65836;SHT30;52595;51.608;7.216;2024-03-23T09:10:15;8.13;86.70
65836;SHT30;52595;51.608;7.216;2024-03-23T09:12:41;8.34;87.01
65836;SHT30;52595;51.608;7.216;2024-03-23T09:15:06;8.14;84.16
65836;SHT30;52595;51.608;7.216;2024-03-23T09:17:32;8.33;84.20
65836;SHT30;52595;51.608;7.216;2024-03-23T09:19:57;8.23;83.45
65836;SHT30;52595;51.608;7.216;2024-03-23T09:22:24;8.06;83.50
65836;SHT30;52595;51.608;7.216;2024-03-23T09:24:49;8.11;84.45
65836;SHT30;52595;51.608;7.216;2024-03-23T09:27:15;8.14;83.82
65836;SHT30;52595;51.608;7.216;2024-03-23T09:29:40;7.77;83.02
65836;SHT30;52595;51.608;7.216;2024-03-23T09:32:06;7.84;84.08
65836;SHT30;52595;51.608;7.216;2024-03-23T09:34:31;8.00;83.79
65836;SHT30;52595;51.608;7.216;2024-03-23T09:36:57;8.13;83.46
65836;SHT30;52595;51.608;7.216;2024-03-23T09:39:22;8.48;82.82
65836;SHT30;52595;51.608;7.216;2024-03-23T09:41:47;8.92;81.23
65836;SHT30;52595;51.608;7.216;2024-03-23T09:44:13;8.75;80.15
65836;SHT30;52595;51.608;7.216;2024-03-23T09:46:38;9.02;80.02
65836;SHT30;52595;51.608;7.216;2024-03-23T09:49:07;9.29;78.29
65836;SHT30;52595;51.608;7.216;2024-03-23T09:51:35;8.88;79.22
65836;SHT30;52595;51.608;7.216;2024-03-23T09:54:01;8.57;83.02
65836;SHT30;52595;51.608;7.216;2024-03-23T09:56:26;8.51;82.88
65836;SHT30;52595;51.608;7.216;2024-03-23T09:59:00;8.65;82.30
65836;SHT30;52595;51.608;7.216;2024-03-23T10:01:26;8.57;78.85
65836;SHT30;52595;51.608;7.216;2024-03-23T10:03:52;8.64;78.86
65836;SHT30;52595;51.608;7.216;2024-03-23T10:06:21;8.91;78.90
65836;SHT30;52595;51.608;7.216;2024-03-23T10:08:46;8.68;77.85
65836;SHT30;52595;51.608;7.216;2024-03-23T10:11:13;8.93;77.97
65836;SHT30;52595;51.608;7.216;2024-03-23T10:13:42;9.08;77.98
65836;SHT30;52595;51.608;7.216;2024-03-23T10:16:08;9.26;77.20
65836;SHT30;52595;51.608;7.216;2024-03-23T10:18:38;9.56;76.73
65836;SHT30;52595;51.608;7.216;2024-03-23T10:21:10;9.33;76.40
65836;SHT30;52595;51.608;7.216;2024-03-23T10:23:39;8.92;76.79
65836;SHT30;52595;51.608;7.216;2024-03-23T10:26:24;9.15;77.25
65836;SHT30;52595;51.608;7.216;2024-03-23T10:28:57;9.02;76.32
65836;SHT30;52595;51.608;7.216;2024-03-23T10:31:25;9.08;76.74
65836;SHT30;52595;51.608;7.216;2024-03-23T10:33:51;9.22;77.04
65836;SHT30;52595;51.608;7.216;2024-03-23T10:36:20;9.42;75.90
65836;SHT30;52595;51.608;7.216;2024-03-23T10:38:46;9.33;75.96
65836;SHT30;52595;51.608;7.216;2024-03-23T10:41:12;9.58;74.98
65836;SHT30;52595;51.608;7.216;2024-03-23T10:43:38;9.88;73.51
65836;SHT30;52595;51.608;7.216;2024-03-23T10:46:04;9.76;73.62
65836;SHT30;52595;51.608;7.216;2024-03-23T10:48:32;10.01;73.16
65836;SHT30;52595;51.608;7.216;2024-03-23T10:50:58;10.18;72.27
65836;SHT30;52595;51.608;7.216;2024-03-23T10:53:26;9.94;71.85
65836;SHT30;52595;51.608;7.216;2024-03-23T10:55:52;9.67;72.33
65836;SHT30;52595;51.608;7.216;2024-03-23T10:58:23;9.37;72.48
65836;SHT30;52595;51.608;7.216;2024-03-23T11:00:49;9.15;73.22
65836;SHT30;52595;51.608;7.216;2024-03-23T11:03:31;9.06;74.57
65836;SHT30;52595;51.608;7.216;2024-03-23T11:05:56;8.64;80.06
65836;SHT30;52595;51.608;7.216;2024-03-23T11:08:39;7.09;83.93
65836;SHT30;52595;51.608;7.216;2024-03-23T11:11:21;6.76;87.30
65836;SHT30;52595;51.608;7.216;2024-03-23T11:13:52;5.28;93.65
65836;SHT30;52595;51.608;7.216;2024-03-23T11:16:28;4.53;95.61
65836;SHT30;52595;51.608;7.216;2024-03-23T11:19:35;4.67;98.59
65836;SHT30;52595;51.608;7.216;2024-03-23T11:22:04;4.79;99.04
65836;SHT30;52595;51.608;7.216;2024-03-23T11:24:33;4.98;97.19
65836;SHT30;52595;51.608;7.216;2024-03-23T11:26:59;5.51;96.09
65836;SHT30;52595;51.608;7.216;2024-03-23T11:29:29;6.60;95.06
65836;SHT30;52595;51.608;7.216;2024-03-23T11:31:55;7.05;94.64
65836;SHT30;52595;51.608;7.216;2024-03-23T11:34:21;7.32;91.60
65836;SHT30;52595;51.608;7.216;2024-03-23T11:36:48;7.65;91.16
65836;SHT30;52595;51.608;7.216;2024-03-23T11:39:18;7.53;90.47
65836;SHT30;52595;51.608;7.216;2024-03-23T11:41:51;8.03;90.81
65836;SHT30;52595;51.608;7.216;2024-03-23T11:44:23;8.17;89.26
65836;SHT30;52595;51.608;7.216;2024-03-23T11:46:49;8.33;88.73
65836;SHT30;52595;51.608;7.216;2024-03-23T11:49:26;9.34;89.57
65836;SHT30;52595;51.608;7.216;2024-03-23T11:51:54;8.79;88.59
65836;SHT30;52595;51.608;7.216;2024-03-23T11:54:24;8.65;88.80
65836;SHT30;52595;51.608;7.216;2024-03-23T11:56:59;8.76;86.04
65836;SHT30;52595;51.608;7.216;2024-03-23T11:59:34;9.71;80.00
65836;SHT30;52595;51.608;7.216;2024-03-23T12:02:06;9.98;78.57
65836;SHT30;52595;51.608;7.216;2024-03-23T12:04:32;9.94;78.09
65836;SHT30;52595;51.608;7.216;2024-03-23T12:07:16;10.51;75.29
65836;SHT30;52595;51.608;7.216;2024-03-23T12:09:46;9.32;79.69
65836;SHT30;52595;51.608;7.216;2024-03-23T12:12:16;8.73;79.90
65836;SHT30;52595;51.608;7.216;2024-03-23T12:15:00;8.64;80.27
65836;SHT30;52595;51.608;7.216;2024-03-23T12:17:26;8.88;80.74
65836;SHT30;52595;51.608;7.216;2024-03-23T12:19:51;9.16;78.24
65836;SHT30;52595;51.608;7.216;2024-03-23T12:22:20;9.74;76.85
65836;SHT30;52595;51.608;7.216;2024-03-23T12:24:48;8.78;79.40
65836;SHT30;52595;51.608;7.216;2024-03-23T12:27:13;8.26;80.94
65836;SHT30;52595;51.608;7.216;2024-03-23T12:29:39;8.06;82.88
65836;SHT30;52595;51.608;7.216;2024-03-23T12:32:07;7.79;83.68
65836;SHT30;52595;51.608;7.216;2024-03-23T12:34:32;7.33;86.57
65836;SHT30;52595;51.608;7.216;2024-03-23T12:36:58;8.89;82.89
65836;SHT30;52595;51.608;7.216;2024-03-23T12:39:24;10.37;79.30
65836;SHT30;52595;51.608;7.216;2024-03-23T12:41:49;9.36;78.05
65836;SHT30;52595;51.608;7.216;2024-03-23T12:44:15;10.68;76.19
65836;SHT30;52595;51.608;7.216;2024-03-23T12:46:41;11.60;70.92
65836;SHT30;52595;51.608;7.216;2024-03-23T12:49:07;10.73;72.68
65836;SHT30;52595;51.608;7.216;2024-03-23T12:51:33;10.66;70.60
65836;SHT30;52595;51.608;7.216;2024-03-23T12:53:59;10.49;73.39
65836;SHT30;52595;51.608;7.216;2024-03-23T12:56:24;10.31;72.26
65836;SHT30;52595;51.608;7.216;2024-03-23T12:58:50;10.75;73.27
65836;SHT30;52595;51.608;7.216;2024-03-23T13:01:17;10.21;69.58
65836;SHT30;52595;51.608;7.216;2024-03-23T13:03:43;9.50;69.72
65836;SHT30;52595;51.608;7.216;2024-03-23T13:06:10;9.56;70.69
65836;SHT30;52595;51.608;7.216;2024-03-23T13:08:36;9.58;70.96
65836;SHT30;52595;51.608;7.216;2024-03-23T13:11:01;9.69;70.13
65836;SHT30;52595;51.608;7.216;2024-03-23T13:13:27;9.26;70.23
65836;SHT30;52595;51.608;7.216;2024-03-23T13:15:52;9.09;71.09
65836;SHT30;52595;51.608;7.216;2024-03-23T13:18:18;8.79;71.86
65836;SHT30;52595;51.608;7.216;2024-03-23T13:20:43;8.52;73.10
65836;SHT30;52595;51.608;7.216;2024-03-23T13:23:09;8.31;74.62
65836;SHT30;52595;51.608;7.216;2024-03-23T13:25:35;8.00;78.14
65836;SHT30;52595;51.608;7.216;2024-03-23T13:28:01;7.76;79.37
65836;SHT30;52595;51.608;7.216;2024-03-23T13:30:28;7.67;79.74
65836;SHT30;52595;51.608;7.216;2024-03-23T13:32:54;7.90;79.96
65836;SHT30;52595;51.608;7.216;2024-03-23T13:35:21;8.31;79.51
65836;SHT30;52595;51.608;7.216;2024-03-23T13:37:46;8.49;80.29
65836;SHT30;52595;51.608;7.216;2024-03-23T13:40:12;10.46;77.16
65836;SHT30;52595;51.608;7.216;2024-03-23T13:42:37;10.27;76.56
65836;SHT30;52595;51.608;7.216;2024-03-23T13:45:03;10.61;74.65
65836;SHT30;52595;51.608;7.216;2024-03-23T13:47:29;9.24;77.11
65836;SHT30;52595;51.608;7.216;2024-03-23T13:49:54;8.20;80.69
65836;SHT30;52595;51.608;7.216;2024-03-23T13:52:20;7.96;81.82
65836;SHT30;52595;51.608;7.216;2024-03-23T13:54:48;7.82;82.57
65836;SHT30;52595;51.608;7.216;2024-03-23T13:57:14;7.55;82.12
65836;SHT30;52595;51.608;7.216;2024-03-23T13:59:39;7.35;82.04
65836;SHT30;52595;51.608;7.216;2024-03-23T14:02:05;8.55;79.80
65836;SHT30;52595;51.608;7.216;2024-03-23T14:04:30;9.93;74.54
65836;SHT30;52595;51.608;7.216;2024-03-23T14:06:56;9.47;75.35
65836;SHT30;52595;51.608;7.216;2024-03-23T14:09:21;9.18;76.96
65836;SHT30;52595;51.608;7.216;2024-03-23T14:11:51;8.23;79.73
65836;SHT30;52595;51.608;7.216;2024-03-23T14:14:17;8.04;79.87
65836;SHT30;52595;51.608;7.216;2024-03-23T14:16:43;8.36;79.34
65836;SHT30;52595;51.608;7.216;2024-03-23T14:19:08;8.67;80.01
65836;SHT30;52595;51.608;7.216;2024-03-23T14:21:33;9.95;77.87
65836;SHT30;52595;51.608;7.216;2024-03-23T14:24:02;10.84;75.66
65836;SHT30;52595;51.608;7.216;2024-03-23T14:26:28;10.34;74.93
65836;SHT30;52595;51.608;7.216;2024-03-23T14:28:54;10.53;73.95
65836;SHT30;52595;51.608;7.216;2024-03-23T14:31:20;9.80;76.28
65836;SHT30;52595;51.608;7.216;2024-03-23T14:33:45;10.93;73.28
65836;SHT30;52595;51.608;7.216;2024-03-23T14:36:16;12.04;70.82
65836;SHT30;52595;51.608;7.216;2024-03-23T14:38:42;10.32;72.72
65836;SHT30;52595;51.608;7.216;2024-03-23T14:41:12;9.77;75.13
65836;SHT30;52595;51.608;7.216;2024-03-23T14:43:37;9.39;75.23
65836;SHT30;52595;51.608;7.216;2024-03-23T14:46:15;9.78;75.22
65836;SHT30;52595;51.608;7.216;2024-03-23T14:48:42;9.33;72.41
65836;SHT30;52595;51.608;7.216;2024-03-23T14:51:10;9.01;72.21
65836;SHT30;52595;51.608;7.216;2024-03-23T14:53:40;8.79;72.97
65836;SHT30;52595;51.608;7.216;2024-03-23T14:56:06;8.76;73.15
65836;SHT30;52595;51.608;7.216;2024-03-23T14:58:32;8.75;72.39
65836;SHT30;52595;51.608;7.216;2024-03-23T15:01:01;8.82;73.04
65836;SHT30;52595;51.608;7.216;2024-03-23T15:03:27;10.08;70.60
65836;SHT30;52595;51.608;7.216;2024-03-23T15:05:59;10.86;68.26
65836;SHT30;52595;51.608;7.216;2024-03-23T15:08:25;11.02;67.44
65836;SHT30;52595;51.608;7.216;2024-03-23T15:10:51;11.37;67.42
65836;SHT30;52595;51.608;7.216;2024-03-23T15:13:17;11.38;68.03
65836;SHT30;52595;51.608;7.216;2024-03-23T15:15:43;10.31;68.94
65836;SHT30;52595;51.608;7.216;2024-03-23T15:18:14;9.53;72.00
65836;SHT30;52595;51.608;7.216;2024-03-23T15:20:57;9.32;73.56
65836;SHT30;52595;51.608;7.216;2024-03-23T15:23:27;10.56;70.32
65836;SHT30;52595;51.608;7.216;2024-03-23T15:25:59;9.74;71.32
65836;SHT30;52595;51.608;7.216;2024-03-23T15:28:25;9.23;72.98
65836;SHT30;52595;51.608;7.216;2024-03-23T15:31:10;9.03;73.59
65836;SHT30;52595;51.608;7.216;2024-03-23T15:33:35;8.76;73.74
65836;SHT30;52595;51.608;7.216;2024-03-23T15:36:02;8.58;73.32
65836;SHT30;52595;51.608;7.216;2024-03-23T15:38:27;8.88;72.24
65836;SHT30;52595;51.608;7.216;2024-03-23T15:40:54;8.89;73.02
65836;SHT30;52595;51.608;7.216;2024-03-23T15:43:20;9.16;72.40
65836;SHT30;52595;51.608;7.216;2024-03-23T15:45:59;10.31;69.39
65836;SHT30;52595;51.608;7.216;2024-03-23T15:48:26;10.61;68.55
65836;SHT30;52595;51.608;7.216;2024-03-23T15:50:55;9.29;69.35
65836;SHT30;52595;51.608;7.216;2024-03-23T15:53:21;8.99;69.80
65836;SHT30;52595;51.608;7.216;2024-03-23T15:56:00;8.62;70.42
65836;SHT30;52595;51.608;7.216;2024-03-23T15:58:27;8.52;70.74
65836;SHT30;52595;51.608;7.216;2024-03-23T16:00:56;8.49;71.72
65836;SHT30;52595;51.608;7.216;2024-03-23T16:03:22;8.47;71.68
65836;SHT30;52595;51.608;7.216;2024-03-23T16:05:52;8.57;72.28
65836;SHT30;52595;51.608;7.216;2024-03-23T16:08:18;8.67;72.11
65836;SHT30;52595;51.608;7.216;2024-03-23T16:10:44;8.65;72.21
65836;SHT30;52595;51.608;7.216;2024-03-23T16:13:09;8.44;72.33
65836;SHT30;52595;51.608;7.216;2024-03-23T16:15:34;8.24;73.64
65836;SHT30;52595;51.608;7.216;2024-03-23T16:18:00;8.26;74.29
65836;SHT30;52595;51.608;7.216;2024-03-23T16:20:25;8.78;73.44
65836;SHT30;52595;51.608;7.216;2024-03-23T16:23:06;8.58;73.08
65836;SHT30;52595;51.608;7.216;2024-03-23T16:25:31;8.45;73.25
65836;SHT30;52595;51.608;7.216;2024-03-23T16:27:57;8.51;73.55
65836;SHT30;52595;51.608;7.216;2024-03-23T16:30:23;9.11;71.73
65836;SHT30;52595;51.608;7.216;2024-03-23T16:32:48;8.75;72.12
65836;SHT30;52595;51.608;7.216;2024-03-23T16:35:14;8.31;73.61
65836;SHT30;52595;51.608;7.216;2024-03-23T16:37:40;8.00;74.41